Time;durP1;ratioP1;P1;durP2;ratioP2;P2;SDS_P1;SDS_P2;PMS_P1;PMS_P2;Temp;Humidity;BMP_temperature;BMP_pressure;BME280_temperature;BME280_humidity;BME280_pressure;Samples;Min_cycle;Max_cycle;Signal;HPM_P1;HPM_P2
2021/04/24 00:00:06;;;;;;;46.38;19.63;;;;;;;2.86;61.05;100724.06;3547514;40;20095;-70
2021/04/24 00:02:32;;;;;;;37.38;17.30;;;;;;;2.83;60.95;100724.06;3553950;40;20042;-70
2021/04/24 00:04:59;;;;;;;41.17;15.65;;;;;;;2.83;60.67;100725.78;3542312;40;20043;-70
2021/04/24 00:07:25;;;;;;;31.27;13.73;;;;;;;2.80;60.64;100729.25;3554023;40;20425;-70
2021/04/24 00:09:53;;;;;;;28.00;13.63;;;;;;;2.73;60.57;100728.41;3548306;40;20301;-70
2021/04/24 00:12:19;;;;;;;25.65;12.15;;;;;;;2.72;60.50;100724.09;3549839;40;20046;-70
2021/04/24 00:14:45;;;;;;;25.60;11.98;;;;;;;2.70;60.35;100723.19;3544983;40;20093;-70
2021/04/24 00:17:11;;;;;;;28.63;11.88;;;;;;;2.65;60.35;100724.91;3547270;40;20077;-69
2021/04/24 00:19:38;;;;;;;28.58;11.98;;;;;;;2.65;60.23;100722.31;3551325;40;20074;-69
2021/04/24 00:22:04;;;;;;;26.52;12.27;;;;;;;2.62;60.00;100730.09;3546317;40;20046;-68
2021/04/24 00:24:30;;;;;;;24.17;11.82;;;;;;;2.61;60.00;100723.19;3540826;40;20430;-70
2021/04/24 00:26:57;;;;;;;28.55;11.23;;;;;;;2.61;59.95;100725.78;3544355;40;20076;-70
2021/04/24 00:29:27;;;;;;;21.45;11.20;;;;;;;2.60;59.87;100725.78;3547179;40;20070;-69
2021/04/24 00:32:04;;;;;;;23.42;11.77;;;;;;;2.58;59.99;100725.78;3547187;40;20038;-69
2021/04/24 00:34:31;;;;;;;21.90;11.50;;;;;;;2.60;59.53;100731.81;3547661;40;20078;-70
2021/04/24 00:36:57;;;;;;;25.98;11.23;;;;;;;2.60;59.52;100734.41;3547283;40;20078;-70
2021/04/24 00:39:23;;;;;;;27.52;10.15;;;;;;;2.57;59.33;100729.22;3547361;40;20034;-70
2021/04/24 00:41:49;;;;;;;22.88;10.13;;;;;;;2.54;59.37;100726.63;3546974;40;20514;-69
2021/04/24 00:44:17;;;;;;;22.75;11.00;;;;;;;2.51;59.22;100731.81;3547156;40;20082;-70
2021/04/24 00:46:43;;;;;;;19.65;9.38;;;;;;;2.50;59.10;100724.91;3546832;40;20039;-70
2021/04/24 00:49:12;;;;;;;18.02;9.75;;;;;;;2.48;59.05;100725.75;3547408;40;20420;-70
2021/04/24 00:51:38;;;;;;;21.63;9.57;;;;;;;2.52;58.65;100732.66;3550498;40;20039;-69
2021/04/24 00:54:06;;;;;;;16.48;8.55;;;;;;;2.50;58.58;100734.38;3542548;40;20090;-69
2021/04/24 00:56:33;;;;;;;22.45;9.15;;;;;;;2.49;58.66;100730.91;3546293;40;20042;-70
2021/04/24 00:59:06;;;;;;;23.10;9.20;;;;;;;2.48;58.36;100736.94;3545861;40;20521;-70
2021/04/24 01:01:33;;;;;;;20.15;9.50;;;;;;;2.47;58.25;100742.13;3547262;40;20045;-70
2021/04/24 01:04:00;;;;;;;24.02;9.68;;;;;;;2.47;58.53;100739.53;3547334;40;20097;-69
2021/04/24 01:06:26;;;;;;;21.73;10.45;;;;;;;2.44;58.40;100743.84;3546965;40;20073;-70
2021/04/24 01:08:52;;;;;;;21.42;9.77;;;;;;;2.44;58.23;100745.56;3546869;40;20087;-70
2021/04/24 01:11:19;;;;;;;22.42;9.90;;;;;;;2.41;58.34;100735.22;3546808;40;20120;-70
2021/04/24 01:13:45;;;;;;;22.92;9.38;;;;;;;2.40;57.97;100741.25;3546986;40;20082;-70
2021/04/24 01:16:11;;;;;;;18.30;8.40;;;;;;;2.39;57.92;100739.53;3546737;40;20066;-71
2021/04/24 01:18:39;;;;;;;18.02;8.40;;;;;;;2.36;58.05;100739.53;3546362;40;20168;-69
2021/04/24 01:21:06;;;;;;;19.55;8.48;;;;;;;2.37;57.65;100741.25;3546834;40;20046;-70
2021/04/24 01:23:34;;;;;;;20.10;8.95;;;;;;;2.37;57.54;100731.75;3547190;40;20082;-69
2021/04/24 01:26:00;;;;;;;20.58;9.77;;;;;;;2.37;57.47;100730.91;3540196;40;20042;-69
2021/04/24 01:28:28;;;;;;;17.58;8.23;;;;;;;2.36;57.55;100731.75;3546930;40;20067;-69
2021/04/24 01:30:54;;;;;;;15.35;7.43;;;;;;;2.34;57.36;100725.72;3546227;40;20042;-70
2021/04/24 01:33:22;;;;;;;16.77;7.25;;;;;;;2.33;57.43;100724.00;3546831;40;20036;-70
2021/04/24 01:35:48;;;;;;;12.18;6.57;;;;;;;2.32;57.37;100717.09;3546495;40;20046;-70
2021/04/24 01:38:15;;;;;;;10.52;5.90;;;;;;;2.32;57.34;100719.69;3546741;40;20045;-70
2021/04/24 01:40:42;;;;;;;12.82;6.53;;;;;;;2.33;57.30;100716.25;3547329;40;20089;-70
2021/04/24 01:43:10;;;;;;;14.77;6.50;;;;;;;2.33;56.99;100717.09;3547003;40;20116;-70
2021/04/24 01:45:36;;;;;;;11.55;5.90;;;;;;;2.31;56.86;100712.78;3547307;40;20121;-70
2021/04/24 01:48:05;;;;;;;13.93;6.15;;;;;;;2.29;57.00;100714.47;3554051;40;20032;-70
2021/04/24 01:50:34;;;;;;;14.95;7.90;;;;;;;2.27;56.61;100717.06;3546585;40;20045;-69
2021/04/24 01:53:02;;;;;;;19.80;7.60;;;;;;;2.28;56.78;100707.56;3546278;40;20124;-69
2021/04/24 01:55:30;;;;;;;16.70;7.63;;;;;;;2.27;56.62;100716.19;3545771;40;20049;-69
2021/04/24 01:57:59;;;;;;;15.27;7.63;;;;;;;2.25;56.57;100717.91;3546834;40;20050;-70
2021/04/24 02:00:29;;;;;;;13.20;6.75;;;;;;;2.23;56.49;100717.06;3545328;40;20462;-69
2021/04/24 02:02:57;;;;;;;12.82;6.50;;;;;;;2.21;56.38;100716.19;3553341;40;20392;-69
2021/04/24 02:05:24;;;;;;;16.70;6.72;;;;;;;2.21;56.30;100716.19;3546574;40;20148;-71
2021/04/24 02:07:59;;;;;;;18.50;7.80;;;;;;;2.17;56.39;100711.88;3546544;40;20059;-69
2021/04/24 02:10:28;;;;;;;12.88;7.65;;;;;;;2.22;56.49;100723.09;3547196;40;20037;-70
2021/04/24 02:12:55;;;;;;;14.80;7.80;;;;;;;2.18;56.33;100714.47;3546305;40;20112;-69
2021/04/24 02:15:23;;;;;;;19.17;7.55;;;;;;;2.16;56.29;100712.72;3547239;40;20075;-70
2021/04/24 02:17:49;;;;;;;14.35;7.43;;;;;;;2.17;56.29;100719.63;3546968;40;20070;-68
2021/04/24 02:20:16;;;;;;;16.05;7.63;;;;;;;2.13;56.39;100719.63;3546931;40;20146;-68
2021/04/24 02:22:43;;;;;;;10.88;6.50;;;;;;;2.16;56.12;100713.59;3545653;40;20415;-69
2021/04/24 02:25:13;;;;;;;13.27;6.88;;;;;;;2.11;56.02;100716.19;3540949;40;20466;-69
2021/04/24 02:27:40;;;;;;;13.93;6.00;;;;;;;2.14;55.91;100715.31;3546235;40;20046;-70
2021/04/24 02:30:07;;;;;;;12.75;6.30;;;;;;;2.16;56.03;100713.59;3546372;40;20066;-70
2021/04/24 02:32:34;;;;;;;10.50;5.78;;;;;;;2.18;56.00;100713.59;3546048;40;20293;-70
2021/04/24 02:35:01;;;;;;;14.38;7.30;;;;;;;2.16;55.90;100723.06;3553869;40;20295;-69
2021/04/24 02:37:28;;;;;;;11.05;6.05;;;;;;;2.17;56.11;100725.66;3546158;40;20054;-71
2021/04/24 02:39:54;;;;;;;11.82;6.55;;;;;;;2.18;55.82;100718.78;3553261;40;20046;-70
2021/04/24 02:42:24;;;;;;;9.93;5.25;;;;;;;2.19;55.88;100718.78;3546485;40;20047;-70
2021/04/24 02:44:52;;;;;;;12.20;5.10;;;;;;;2.16;55.79;100716.19;3547834;40;20042;-69
2021/04/24 02:47:20;;;;;;;8.88;5.22;;;;;;;2.16;55.99;100707.56;3548464;40;20039;-70
2021/04/24 02:49:47;;;;;;;10.00;4.97;;;;;;;2.14;56.03;100713.59;3546381;40;20403;-69
2021/04/24 02:52:14;;;;;;;12.57;6.10;;;;;;;2.11;56.28;100708.41;3547173;40;20041;-69
2021/04/24 02:54:40;;;;;;;13.65;5.22;;;;;;;2.10;56.12;100719.63;3551545;40;20563;-70
2021/04/24 02:57:06;;;;;;;11.75;5.25;;;;;;;2.09;56.04;100702.38;3551057;40;20189;-70
2021/04/24 02:59:33;;;;;;;10.60;6.18;;;;;;;2.07;56.09;100698.88;3548667;40;20057;-70
2021/04/24 03:01:59;;;;;;;10.63;4.90;;;;;;;2.06;56.07;100702.34;3547708;40;20045;-70
2021/04/24 03:04:26;;;;;;;13.48;5.10;;;;;;;2.04;56.16;100701.47;3548653;40;20342;-70
2021/04/24 03:06:53;;;;;;;9.40;4.82;;;;;;;2.02;56.18;100698.03;3548732;40;20042;-70
2021/04/24 03:09:20;;;;;;;10.85;5.47;;;;;;;2.03;56.07;100702.34;3548600;40;20088;-69
2021/04/24 03:11:46;;;;;;;9.13;5.20;;;;;;;2.04;56.07;100693.72;3555603;40;20463;-69
2021/04/24 03:14:12;;;;;;;11.13;5.55;;;;;;;2.02;56.01;100695.44;3548914;40;20115;-70
2021/04/24 03:16:39;;;;;;;10.70;5.38;;;;;;;2.01;56.02;100680.78;3547550;40;20426;-71
2021/04/24 03:19:07;;;;;;;16.60;8.23;;;;;;;1.99;56.15;100690.25;3548070;40;20094;-71
2021/04/24 03:21:33;;;;;;;18.52;8.95;;;;;;;1.99;56.09;100700.59;3548018;40;20050;-71
2021/04/24 03:24:00;;;;;;;24.00;11.13;;;;;;;1.99;56.14;100686.81;3547636;40;20124;-70
2021/04/24 03:26:27;;;;;;;24.23;11.30;;;;;;;1.99;55.90;100685.09;3542838;40;20058;-70
2021/04/24 03:28:53;;;;;;;24.80;12.45;;;;;;;2.00;55.94;100697.16;3548119;40;20041;-70
2021/04/24 03:31:20;;;;;;;19.02;10.00;;;;;;;2.00;56.00;100689.41;3548094;40;20030;-69
2021/04/24 03:33:47;;;;;;;17.60;7.80;;;;;;;2.03;55.92;100699.75;3548616;40;20120;-70
2021/04/24 03:36:13;;;;;;;18.02;6.55;;;;;;;2.07;56.04;100695.44;3548108;40;20044;-70
2021/04/24 03:38:40;;;;;;;14.82;6.35;;;;;;;2.10;55.94;100692.91;3548073;40;20120;-70
2021/04/24 03:41:08;;;;;;;13.07;6.30;;;;;;;2.11;56.07;100695.47;3548308;40;20031;-70
2021/04/24 03:43:35;;;;;;;16.83;6.45;;;;;;;2.20;55.87;100704.13;3548479;40;20057;-69
2021/04/24 03:46:01;;;;;;;15.65;6.68;;;;;;;2.36;55.43;100705.88;3548007;40;20433;-70
2021/04/24 03:48:28;;;;;;;11.57;6.18;;;;;;;2.57;54.99;100718.88;3548532;40;20067;-70
2021/04/24 03:50:54;;;;;;;17.30;6.70;;;;;;;2.73;54.82;100712.84;3548303;40;20046;-69
2021/04/24 03:53:21;;;;;;;14.52;6.32;;;;;;;2.92;54.31;100720.63;3547654;40;20122;-69
2021/04/24 03:55:47;;;;;;;15.85;7.50;;;;;;;3.08;54.07;100719.75;3547297;40;20074;-70
2021/04/24 03:58:14;;;;;;;27.10;10.48;;;;;;;3.23;53.51;100724.94;3548530;40;20046;-70
2021/04/24 04:00:41;;;;;;;25.73;10.90;;;;;;;3.47;53.14;100726.63;3553719;40;20074;-70
2021/04/24 04:03:09;;;;;;;21.48;8.93;;;;;;;3.67;52.73;100717.06;3550755;40;20069;-70
2021/04/24 04:05:38;;;;;;;19.38;7.50;;;;;;;3.87;52.43;100717.00;3551364;40;20070;-69
2021/04/24 04:08:06;;;;;;;11.32;6.38;;;;;;;4.12;51.99;100711.72;3551644;40;20038;-69
2021/04/24 04:10:33;;;;;;;10.00;6.22;;;;;;;4.36;51.62;100713.31;3557227;40;20038;-70
2021/04/24 04:13:00;;;;;;;12.00;6.60;;;;;;;4.56;51.41;100714.91;3547536;40;20030;-70
2021/04/24 04:15:29;;;;;;;14.25;6.18;;;;;;;4.80;51.00;100715.66;3547990;40;20045;-70
2021/04/24 04:17:59;;;;;;;11.30;5.68;;;;;;;5.05;50.61;100716.31;3548030;40;20062;-70
2021/04/24 04:20:25;;;;;;;10.27;5.03;;;;;;;5.27;50.07;100717.00;3547914;40;20042;-70
2021/04/24 04:22:52;;;;;;;11.80;5.43;;;;;;;5.47;49.85;100723.72;3547564;40;20054;-70
2021/04/24 04:25:18;;;;;;;10.18;5.32;;;;;;;5.60;49.64;100718.38;3548782;40;20039;-70
2021/04/24 04:27:45;;;;;;;11.63;5.22;;;;;;;5.77;49.30;100717.31;3537515;40;20156;-70
2021/04/24 04:30:13;;;;;;;11.48;4.75;;;;;;;5.92;48.80;100723.28;3539042;40;20087;-70
2021/04/24 04:32:40;;;;;;;9.93;4.55;;;;;;;6.06;48.55;100717.03;3547385;40;20046;-70
2021/04/24 04:35:09;;;;;;;9.68;4.80;;;;;;;6.28;47.97;100722.81;3547853;40;20075;-70
2021/04/24 04:37:36;;;;;;;9.65;4.82;;;;;;;6.54;47.50;100726.81;3547793;40;20045;-70
2021/04/24 04:40:03;;;;;;;10.43;4.72;;;;;;;6.66;47.47;100713.56;3544283;40;20038;-69
2021/04/24 04:42:29;;;;;;;7.95;4.38;;;;;;;6.85;47.18;100722.84;3553939;40;20034;-69
2021/04/24 04:44:56;;;;;;;9.38;4.75;;;;;;;7.04;46.40;100715.59;3547863;40;20039;-70
2021/04/24 04:47:22;;;;;;;11.88;4.53;;;;;;;7.22;46.33;100717.03;3547702;40;20054;-70
2021/04/24 04:49:49;;;;;;;9.93;4.68;;;;;;;7.44;45.72;100713.16;3548269;40;20045;-70
2021/04/24 04:52:16;;;;;;;9.20;5.15;;;;;;;7.65;45.48;100712.75;3547678;40;20321;-70
2021/04/24 04:54:42;;;;;;;10.27;4.90;;;;;;;7.77;45.21;100708.22;3548255;40;20070;-70
2021/04/24 04:57:08;;;;;;;10.68;4.95;;;;;;;7.91;45.01;100711.38;3546479;40;20038;-70
2021/04/24 04:59:34;;;;;;;8.65;4.75;;;;;;;8.02;44.53;100705.97;3548054;40;20046;-70
2021/04/24 05:02:01;;;;;;;8.13;4.57;;;;;;;8.17;44.10;100716.09;3547601;40;20070;-70
2021/04/24 05:04:27;;;;;;;6.78;4.32;;;;;;;8.39;43.60;100713.91;3546237;40;20086;-69
2021/04/24 05:06:54;;;;;;;12.35;4.95;;;;;;;8.58;43.37;100712.63;3552584;40;20050;-71
2021/04/24 05:09:22;;;;;;;8.77;4.40;;;;;;;8.74;43.07;100713.09;3548160;40;20037;-71
2021/04/24 05:11:49;;;;;;;11.57;5.18;;;;;;;8.84;42.75;100718.09;3547994;40;20031;-70
2021/04/24 05:14:15;;;;;;;9.95;4.18;;;;;;;9.17;41.76;100720.78;3547956;40;20414;-70
2021/04/24 05:16:41;;;;;;;6.88;4.15;;;;;;;9.29;41.71;100724.84;3546681;40;20035;-71
2021/04/24 05:19:08;;;;;;;8.82;4.10;;;;;;;9.33;41.71;100724.72;3547516;40;20050;-69
2021/04/24 05:21:34;;;;;;;8.38;4.75;;;;;;;9.33;41.68;100724.72;3554628;40;20063;-70
2021/04/24 05:24:01;;;;;;;7.53;4.40;;;;;;;9.38;41.57;100725.47;3547651;40;20400;-71
2021/04/24 05:26:28;;;;;;;8.50;4.20;;;;;;;9.52;41.34;100732.09;3547505;40;20063;-70
2021/04/24 05:28:54;;;;;;;7.82;4.13;;;;;;;9.62;41.06;100734.44;3547566;40;20173;-70
2021/04/24 05:31:20;;;;;;;9.50;5.25;;;;;;;9.82;40.71;100730.41;3547465;40;20042;-70
2021/04/24 05:33:46;;;;;;;9.45;4.60;;;;;;;9.92;40.79;100731.88;3547551;40;20038;-69
2021/04/24 05:36:15;;;;;;;8.02;5.15;;;;;;;10.16;40.35;100731.16;3544676;40;20413;-70
2021/04/24 05:38:41;;;;;;;12.50;5.63;;;;;;;10.38;40.22;100736.66;3546742;40;20315;-69
2021/04/24 05:41:09;;;;;;;12.93;5.65;;;;;;;10.45;39.77;100732.13;3547796;40;20049;-70
2021/04/24 05:43:36;;;;;;;7.75;4.60;;;;;;;10.62;39.80;100730.72;3547136;40;20038;-71
2021/04/24 05:46:03;;;;;;;8.25;4.65;;;;;;;10.78;39.89;100727.59;3544406;40;20062;-70
2021/04/24 05:48:30;;;;;;;10.15;4.47;;;;;;;11.00;39.43;100726.00;3545431;40;20395;-70
2021/04/24 05:50:56;;;;;;;9.60;3.88;;;;;;;11.04;39.35;100725.00;3545615;40;20030;-71
2021/04/24 05:53:22;;;;;;;9.98;4.45;;;;;;;11.32;39.01;100721.47;3546013;40;20046;-70
2021/04/24 05:55:49;;;;;;;9.07;4.85;;;;;;;11.27;39.03;100719.84;3546650;40;20046;-71
2021/04/24 05:58:16;;;;;;;13.52;6.55;;;;;;;12.31;37.83;100713.53;3545866;40;20050;-70
2021/04/24 06:00:43;;;;;;;11.70;5.55;;;;;;;13.00;36.60;100719.53;3546737;40;20031;-70
2021/04/24 06:03:09;;;;;;;10.48;4.75;;;;;;;12.87;36.79;100710.41;3545457;40;20030;-69
2021/04/24 06:05:36;;;;;;;8.88;5.65;;;;;;;12.71;37.39;100719.88;3535511;40;20125;-68
2021/04/24 06:08:02;;;;;;;7.25;4.07;;;;;;;13.02;36.96;100722.97;3546223;40;20048;-68
2021/04/24 06:10:28;;;;;;;6.88;4.25;;;;;;;13.30;36.66;100729.75;3546410;40;20125;-69
2021/04/24 06:12:54;;;;;;;8.95;4.70;;;;;;;14.57;34.29;100724.97;3546590;40;20029;-68
2021/04/24 06:15:23;;;;;;;7.65;4.22;;;;;;;14.26;34.90;100729.00;3545182;40;20295;-69
2021/04/24 06:17:50;;;;;;;6.85;3.92;;;;;;;13.70;35.74;100734.16;3545748;40;20396;-68
2021/04/24 06:20:17;;;;;;;5.90;3.88;;;;;;;13.81;35.11;100731.94;3545156;40;20056;-69
2021/04/24 06:22:43;;;;;;;8.88;4.38;;;;;;;13.92;35.13;100728.81;3533897;40;20060;-69
2021/04/24 06:25:11;;;;;;;8.10;4.47;;;;;;;13.95;34.67;100728.66;3558550;40;20077;-69
2021/04/24 06:27:48;;;;;;;5.75;3.83;;;;;;;13.59;35.39;100732.03;3557256;40;20038;-69
2021/04/24 06:30:17;;;;;;;7.65;4.20;;;;;;;13.85;34.91;100738.78;3557136;40;20034;-69
2021/04/24 06:32:45;;;;;;;8.95;4.75;;;;;;;14.40;34.14;100732.81;3557747;40;20310;-68
2021/04/24 06:35:13;;;;;;;7.72;3.70;;;;;;;14.13;34.61;100732.25;3554780;40;20042;-69
2021/04/24 06:37:40;;;;;;;7.18;4.45;;;;;;;13.77;35.09;100738.28;3561657;40;20042;-70
2021/04/24 06:40:08;;;;;;;6.28;3.88;;;;;;;13.60;35.35;100739.00;3558008;40;20647;-68
2021/04/24 06:42:36;;;;;;;5.85;4.57;;;;;;;13.50;35.70;100737.66;3557797;40;20104;-68
2021/04/24 06:45:05;;;;;;;10.65;4.30;;;;;;;13.73;35.55;100740.16;3556823;40;20050;-69
2021/04/24 06:47:31;;;;;;;7.35;3.95;;;;;;;14.72;34.22;100721.59;3556601;40;20050;-69
2021/04/24 06:49:59;;;;;;;10.65;4.30;;;;;;;16.76;31.57;100715.38;3557456;40;20048;-69
2021/04/24 06:52:25;;;;;;;5.82;4.00;;;;;;;16.79;31.40;100717.00;3557467;40;20412;-69
2021/04/24 06:54:51;;;;;;;7.80;4.68;;;;;;;16.31;32.39;100719.63;3557929;40;20298;-69
2021/04/24 06:57:18;;;;;;;8.85;5.15;;;;;;;16.61;32.26;100718.84;3564332;40;20058;-69
2021/04/24 06:59:44;;;;;;;6.85;4.45;;;;;;;18.40;29.95;100719.72;3557656;40;20072;-68
2021/04/24 07:02:11;;;;;;;7.40;4.22;;;;;;;20.32;27.42;100718.22;3556836;40;20126;-68
2021/04/24 07:04:37;;;;;;;7.72;4.75;;;;;;;20.67;27.13;100709.56;3556616;40;20365;-69
2021/04/24 07:07:05;;;;;;;7.65;4.18;;;;;;;20.50;27.14;100704.59;3555947;40;20053;-70
2021/04/24 07:09:31;;;;;;;11.90;6.55;;;;;;;20.41;27.44;100711.44;3557397;40;20054;-69
2021/04/24 07:11:57;;;;;;;9.52;5.07;;;;;;;20.37;28.14;100716.09;3556928;40;20053;-69
2021/04/24 07:14:24;;;;;;;5.72;3.78;;;;;;;19.03;29.64;100720.03;3556225;40;20057;-69
2021/04/24 07:16:50;;;;;;;8.38;3.75;;;;;;;20.52;28.00;100713.31;3562544;40;20331;-69
2021/04/24 07:19:17;;;;;;;7.72;5.00;;;;;;;24.93;22.71;100700.28;3557149;40;20052;-69
2021/04/24 07:21:43;;;;;;;6.53;3.50;;;;;;;27.00;20.43;100693.00;3556220;40;20042;-71
2021/04/24 07:24:11;;;;;;;5.50;3.63;;;;;;;25.73;21.39;100691.09;3556168;40;20411;-69
2021/04/24 07:26:37;;;;;;;6.57;3.40;;;;;;;24.50;22.96;100703.34;3557558;40;20049;-68
2021/04/24 07:29:04;;;;;;;8.32;4.50;;;;;;;24.43;22.77;100699.50;3558170;40;20038;-69
2021/04/24 07:31:31;;;;;;;6.68;4.20;;;;;;;26.71;20.33;100695.06;3557299;40;20038;-70
2021/04/24 07:33:58;;;;;;;10.02;4.75;;;;;;;27.70;19.45;100695.81;3552514;40;20115;-68
2021/04/24 07:36:25;;;;;;;5.28;3.40;;;;;;;29.03;17.44;100689.75;3556685;40;20426;-70
2021/04/24 07:38:51;;;;;;;7.40;3.33;;;;;;;28.41;18.41;100695.50;3555285;40;20065;-70
2021/04/24 07:41:18;;;;;;;5.50;3.63;;;;;;;26.11;20.00;100705.38;3555902;40;20437;-72
2021/04/24 07:43:45;;;;;;;5.70;3.58;;;;;;;24.49;21.80;100709.69;3556695;40;20049;-69
2021/04/24 07:46:11;;;;;;;6.32;4.20;;;;;;;25.43;20.61;100718.13;3557681;40;20046;-70
2021/04/24 07:48:37;;;;;;;8.05;3.65;;;;;;;26.58;19.72;100708.00;3558131;40;20043;-67
2021/04/24 07:51:04;;;;;;;5.80;3.80;;;;;;;27.88;18.38;100693.84;3557247;40;20034;-69
2021/04/24 07:53:31;;;;;;;8.13;4.25;;;;;;;29.65;16.46;100682.84;3556675;40;20034;-70
2021/04/24 07:55:57;;;;;;;17.15;10.27;;;;;;;32.21;14.70;100687.00;3557599;40;20407;-68
2021/04/24 07:58:24;;;;;;;7.65;4.78;;;;;;;32.93;14.22;100684.38;3557609;40;20133;-66
2021/04/24 08:00:50;;;;;;;7.60;3.70;;;;;;;35.28;12.60;100679.78;3556250;40;20052;-68
2021/04/24 08:03:16;;;;;;;7.47;3.65;;;;;;;33.75;13.73;100681.09;3557947;40;20026;-66
2021/04/24 08:05:43;;;;;;;6.68;3.33;;;;;;;30.17;16.40;100695.03;3558480;40;20042;-66
2021/04/24 08:08:09;;;;;;;5.95;5.07;;;;;;;29.50;17.02;100691.81;3557893;40;20041;-67
2021/04/24 08:10:35;;;;;;;5.65;4.18;;;;;;;31.15;15.32;100684.50;3557361;40;20049;-66
2021/04/24 08:13:03;;;;;;;5.55;4.00;;;;;;;27.60;17.45;100703.94;3556894;40;20034;-66
2021/04/24 08:15:30;;;;;;;6.03;4.50;;;;;;;24.36;20.65;100697.50;3557297;40;20064;-67
2021/04/24 08:17:57;;;;;;;8.10;4.15;;;;;;;26.70;18.60;100702.28;3556003;40;20056;-67
2021/04/24 08:20:23;;;;;;;7.78;3.50;;;;;;;30.56;15.37;100685.03;3557617;40;20110;-66
2021/04/24 08:22:50;;;;;;;6.45;3.42;;;;;;;31.96;14.18;100682.91;3556965;40;20030;-67
2021/04/24 08:25:16;;;;;;;7.20;3.75;;;;;;;33.86;12.34;100671.56;3557339;40;20078;-67
2021/04/24 08:27:43;;;;;;;4.40;3.25;;;;;;;32.51;13.33;100670.72;3556530;40;20060;-69
2021/04/24 08:30:13;;;;;;;7.03;4.05;;;;;;;32.92;13.12;100674.53;3555541;40;20038;-69
2021/04/24 08:32:41;;;;;;;6.88;3.80;;;;;;;33.12;13.22;100674.72;3556248;40;20049;-68
2021/04/24 08:35:09;;;;;;;7.97;4.57;;;;;;;34.98;11.81;100665.69;3556935;40;20042;-69
2021/04/24 08:37:37;;;;;;;8.85;4.20;;;;;;;31.01;14.37;100672.59;3557047;40;20424;-68
2021/04/24 08:40:05;;;;;;;8.57;5.15;;;;;;;27.12;17.49;100690.09;3556790;40;20284;-68
2021/04/24 08:42:33;;;;;;;9.68;5.45;;;;;;;25.01;19.42;100705.00;3554394;40;20033;-68
2021/04/24 08:45:00;;;;;;;8.93;5.25;;;;;;;23.82;20.18;100704.88;3555019;40;20460;-69
2021/04/24 08:47:28;;;;;;;5.72;3.25;;;;;;;28.31;16.28;100683.13;3555678;40;20327;-68
2021/04/24 08:49:55;;;;;;;14.82;4.65;;;;;;;30.69;14.73;100672.84;3555759;40;20402;-68
2021/04/24 08:52:23;;;;;;;9.27;4.35;;;;;;;29.33;15.67;100669.31;3563550;40;20394;-72
2021/04/24 08:54:50;;;;;;;6.50;3.95;;;;;;;26.45;17.67;100681.50;3562910;40;20061;-68
2021/04/24 08:57:17;;;;;;;6.18;4.68;;;;;;;29.73;15.62;100676.56;3555185;40;20034;-68
2021/04/24 08:59:44;;;;;;;8.25;4.95;;;;;;;31.28;14.30;100662.25;3556619;40;20037;-67
2021/04/24 09:02:10;;;;;;;8.20;4.10;;;;;;;34.02;11.80;100652.19;3555941;40;20033;-68
2021/04/24 09:04:37;;;;;;;8.23;4.18;;;;;;;33.99;12.08;100646.31;3563003;40;20040;-68
2021/04/24 09:07:05;;;;;;;9.75;4.90;;;;;;;31.05;13.65;100654.97;3556308;40;20045;-67
2021/04/24 09:09:31;;;;;;;6.68;3.92;;;;;;;30.37;14.52;100663.00;3563031;40;20135;-68
2021/04/24 09:12:01;;;;;;;6.25;3.75;;;;;;;31.57;13.45;100651.47;3555836;40;20044;-68
2021/04/24 09:14:29;;;;;;;6.90;4.07;;;;;;;32.39;13.02;100638.66;3555269;40;20041;-68
2021/04/24 09:16:56;;;;;;;9.20;5.68;;;;;;;31.20;13.27;100647.75;3555742;40;20042;-68
2021/04/24 09:19:31;;;;;;;7.90;5.40;;;;;;;30.75;13.72;100647.75;3556119;40;20034;-68
2021/04/24 09:22:20;;;;;;;5.57;3.70;;;;;;;32.29;12.69;100634.56;3554666;40;20116;-67
2021/04/24 09:24:50;;;;;;;8.60;4.15;;;;;;;32.33;12.73;100619.59;3554184;40;20573;-68
2021/04/24 09:27:17;;;;;;;6.15;4.35;;;;;;;34.46;11.41;100634.59;3556272;40;20030;-68
2021/04/24 09:29:44;;;;;;;7.43;4.20;;;;;;;31.02;13.65;100641.78;3556147;40;20115;-69
2021/04/24 09:32:18;;;;;;;5.43;3.72;;;;;;;28.84;15.09;100636.91;3555794;40;20497;-68
2021/04/24 09:34:47;;;;;;;5.65;4.18;;;;;;;29.29;14.14;100636.44;3556386;40;20042;-72
2021/04/24 09:37:19;;;;;;;7.50;4.23;;;;;;;31.58;13.38;100617.91;3555974;40;20064;-71
2021/04/24 09:39:48;;;;;;;7.13;4.28;;;;;;;33.86;11.19;100617.16;3556226;40;20038;-71
2021/04/24 09:42:38;;;;;;;11.68;4.95;;;;;;;33.75;11.88;100607.69;3554637;40;20048;-70
2021/04/24 09:45:24;;;;;;;9.90;5.47;;;;;;;31.03;12.89;100627.25;3558251;40;20347;-71
2021/04/24 09:47:50;;;;;;;8.70;4.90;;;;;;;28.61;14.55;100631.31;3556462;40;20046;-70
2021/04/24 09:50:19;;;;;;;6.07;3.88;;;;;;;30.27;13.42;100622.66;3556184;40;20120;-70
2021/04/24 09:52:47;;;;;;;6.78;4.25;;;;;;;29.91;13.61;100609.63;3555281;40;20054;-71
2021/04/24 09:55:16;;;;;;;11.30;5.22;;;;;;;27.79;15.45;100618.56;3557225;40;20032;-70
2021/04/24 09:57:43;;;;;;;9.52;5.32;;;;;;;25.96;16.75;100627.09;3557875;40;20038;-70
2021/04/24 10:00:14;;;;;;;9.52;4.80;;;;;;;24.41;18.37;100631.81;3558554;40;20034;-71
2021/04/24 10:02:43;;;;;;;14.45;6.78;;;;;;;22.73;19.65;100637.44;3558860;40;20030;-69
2021/04/24 10:05:13;;;;;;;12.30;5.05;;;;;;;21.57;20.44;100636.94;3566406;40;20057;-71
2021/04/24 10:07:41;;;;;;;8.43;5.05;;;;;;;21.43;20.86;100625.63;3559760;40;20071;-71
2021/04/24 10:10:11;;;;;;;7.43;3.97;;;;;;;21.24;20.43;100632.41;3558780;40;20042;-71
2021/04/24 10:12:38;;;;;;;10.50;5.43;;;;;;;20.78;21.11;100639.47;3559432;40;20042;-70
2021/04/24 10:15:06;;;;;;;8.85;4.13;;;;;;;20.16;21.42;100631.59;3558412;40;20042;-69
2021/04/24 10:17:32;;;;;;;5.25;3.92;;;;;;;19.78;21.43;100630.72;3559484;40;20044;-71
2021/04/24 10:20:01;;;;;;;6.88;4.45;;;;;;;19.54;22.05;100628.91;3554181;40;20034;-71
2021/04/24 10:22:27;;;;;;;5.10;3.50;;;;;;;19.69;21.89;100622.53;3559037;40;20033;-71
2021/04/24 10:24:54;;;;;;;6.57;5.15;;;;;;;19.71;22.12;100629.44;3557053;40;20360;-71
2021/04/24 10:27:22;;;;;;;6.15;3.80;;;;;;;19.59;21.63;100621.47;3558816;40;20034;-70
2021/04/24 10:29:50;;;;;;;7.95;4.28;;;;;;;20.04;21.18;100628.00;3559761;40;20034;-70
2021/04/24 10:32:17;;;;;;;6.82;3.60;;;;;;;20.15;20.68;100625.41;3559510;40;20038;-70
2021/04/24 10:34:44;;;;;;;4.88;2.90;;;;;;;19.95;20.83;100613.53;3559593;40;20045;-71
2021/04/24 10:37:11;;;;;;;6.18;3.63;;;;;;;20.13;20.49;100616.69;3559366;40;20030;-70
2021/04/24 10:39:39;;;;;;;6.20;3.70;;;;;;;20.13;20.53;100616.69;3559470;40;20042;-70
2021/04/24 10:42:12;;;;;;;5.22;3.15;;;;;;;19.90;20.40;100620.16;3559141;40;20034;-71
2021/04/24 10:44:54;;;;;;;5.72;3.30;;;;;;;19.62;20.98;100618.59;3566592;40;20046;-71
2021/04/24 10:47:51;;;;;;;4.93;3.38;;;;;;;19.30;21.19;100620.78;3558823;40;20042;-69
2021/04/24 10:50:19;;;;;;;5.20;4.03;;;;;;;18.94;21.92;100624.13;3566499;40;20044;-70
2021/04/24 10:52:46;;;;;;;7.18;3.80;;;;;;;18.74;21.78;100620.16;3559233;40;20038;-72
2021/04/24 10:55:19;;;;;;;6.22;4.35;;;;;;;18.51;23.04;100616.31;3559990;40;20033;-73
2021/04/24 10:57:48;;;;;;;10.35;4.38;;;;;;;18.10;23.21;100624.28;3559084;40;20067;-70
2021/04/24 11:00:18;;;;;;;7.32;3.92;;;;;;;18.04;23.07;100616.72;3559788;40;20387;-70
2021/04/24 11:02:46;;;;;;;7.77;4.00;;;;;;;18.07;22.27;100617.38;3557658;40;20057;-70
2021/04/24 11:05:22;;;;;;;6.57;3.65;;;;;;;18.17;22.23;100610.56;3558942;40;20045;-70
2021/04/24 11:07:49;;;;;;;4.57;3.15;;;;;;;18.64;21.69;100611.09;3558181;40;20367;-71
2021/04/24 11:10:29;;;;;;;5.25;4.05;;;;;;;18.96;21.33;100596.53;3557357;40;20038;-71
2021/04/24 11:13:01;;;;;;;6.20;4.35;;;;;;;18.89;22.03;100616.47;3558434;40;20038;-70
2021/04/24 11:15:30;;;;;;;7.20;4.30;;;;;;;18.72;22.45;100608.78;3557749;40;20038;-71
2021/04/24 11:17:59;;;;;;;6.10;4.57;;;;;;;18.88;22.50;100614.78;3558567;40;20050;-70
2021/04/24 11:20:51;;;;;;;9.38;4.68;;;;;;;18.96;22.58;100599.19;3558170;40;20038;-69
2021/04/24 11:23:50;;;;;;;6.85;4.82;;;;;;;18.85;22.87;100612.31;3557159;40;20058;-66
2021/04/24 11:26:22;;;;;;;7.53;4.25;;;;;;;18.21;22.72;100604.09;3558726;40;20046;-67